Time;durP1;ratioP1;P1;durP2;ratioP2;P2;SDS_P1;SDS_P2;PMS_P1;PMS_P2;Temp;Humidity;BMP_temperature;BMP_pressure;BME280_temperature;BME280_humidity;BME280_pressure;Samples;Min_cycle;Max_cycle;Signal;HPM_P1;HPM_P2
2021/12/30 00:01:56;;;;;;;1.33;1.23;;;;;;;;;;5105834;28;20219;-91
2021/12/30 00:04:25;;;;;;;0.80;0.80;;;;;;;;;;5097048;28;20235;-91
2021/12/30 00:06:53;;;;;;;1.37;1.27;;;;;;;;;;5073170;28;20201;-91
2021/12/30 00:09:20;;;;;;;1.33;1.23;;;;;;;;;;5073139;28;20217;-92
2021/12/30 00:11:47;;;;;;;1.57;1.47;;;;;;;;;;5073000;28;20746;-92
2021/12/30 00:14:15;;;;;;;0.80;0.80;;;;;;;;;;5073036;28;20279;-92
2021/12/30 00:16:42;;;;;;;1.00;1.00;;;;;;;;;;5072544;28;20209;-92
2021/12/30 00:19:12;;;;;;;1.97;0.97;;;;;;;;;;5072699;28;20217;-91
2021/12/30 00:21:41;;;;;;;1.53;1.17;;;;;;;;;;5072769;28;20264;-92
2021/12/30 00:24:09;;;;;;;1.73;1.07;;;;;;;;;;5072606;28;20225;-91
2021/12/30 00:26:36;;;;;;;1.07;1.07;;;;;;;;;;5072913;28;20233;-91
2021/12/30 00:29:04;;;;;;;0.93;0.90;;;;;;;;;;5072804;28;20266;-91
2021/12/30 00:31:31;;;;;;;0.93;0.93;;;;;;;;;;5072688;28;20255;-91
2021/12/30 00:33:59;;;;;;;1.30;1.20;;;;;;;;;;5072860;28;20286;-92
2021/12/30 00:36:26;;;;;;;1.03;1.00;;;;;;;;;;5072622;28;20559;-92
2021/12/30 00:38:55;;;;;;;1.10;1.00;;;;;;;;;;5072665;28;20205;-91
2021/12/30 00:41:22;;;;;;;1.20;1.10;;;;;;;;;;5073537;28;20217;-92
2021/12/30 00:43:50;;;;;;;1.07;0.97;;;;;;;;;;5072909;28;20274;-92
2021/12/30 00:46:17;;;;;;;1.00;1.00;;;;;;;;;;5072847;28;20221;-92
2021/12/30 00:48:44;;;;;;;1.20;0.93;;;;;;;;;;5094727;28;20200;-92
2021/12/30 00:51:12;;;;;;;1.00;1.00;;;;;;;;;;5113428;28;20204;-91
2021/12/30 00:53:41;;;;;;;1.10;1.00;;;;;;;;;;5111047;28;20665;-92
2021/12/30 00:56:10;;;;;;;0.80;0.80;;;;;;;;;;5107413;28;20393;-92
2021/12/30 00:58:37;;;;;;;2.00;1.03;;;;;;;;;;5102745;28;20201;-92
2021/12/30 01:01:05;;;;;;;0.97;0.97;;;;;;;;;;5092424;28;20221;-91
2021/12/30 01:03:34;;;;;;;1.20;1.10;;;;;;;;;;5092499;28;20244;-93
2021/12/30 01:06:01;;;;;;;1.00;1.00;;;;;;;;;;5105917;28;20571;-93
2021/12/30 01:08:28;;;;;;;2.47;1.27;;;;;;;;;;5113269;28;20613;-91
2021/12/30 01:10:56;;;;;;;1.27;1.17;;;;;;;;;;5108553;28;20200;-92
2021/12/30 01:13:27;;;;;;;1.13;1.07;;;;;;;;;;5092559;28;20224;-92
2021/12/30 01:16:00;;;;;;;1.80;0.93;;;;;;;;;;5105161;28;20192;-92
2021/12/30 01:18:37;;;;;;;1.37;1.23;;;;;;;;;;5113164;28;20204;-92
2021/12/30 01:21:05;;;;;;;0.90;0.90;;;;;;;;;;5112780;28;20220;-92
2021/12/30 01:23:33;;;;;;;2.60;1.20;;;;;;;;;;5102747;28;20254;-92
2021/12/30 01:26:00;;;;;;;1.13;1.03;;;;;;;;;;5092585;28;20208;-91
2021/12/30 01:28:29;;;;;;;1.20;1.10;;;;;;;;;;5092515;28;20216;-92
2021/12/30 01:30:57;;;;;;;0.90;0.90;;;;;;;;;;5095592;28;20270;-92
2021/12/30 01:33:24;;;;;;;2.23;0.90;;;;;;;;;;5112770;28;20568;-92
2021/12/30 01:35:52;;;;;;;0.80;0.80;;;;;;;;;;5116692;28;20257;-92
2021/12/30 01:38:19;;;;;;;0.80;0.80;;;;;;;;;;5100406;28;20208;-91
2021/12/30 01:40:48;;;;;;;0.80;0.80;;;;;;;;;;5116223;28;20256;-92
2021/12/30 01:43:16;;;;;;;0.80;0.80;;;;;;;;;;5116250;28;20232;-91
2021/12/30 01:45:46;;;;;;;1.00;0.90;;;;;;;;;;5096790;28;20641;-91
2021/12/30 01:48:13;;;;;;;1.87;0.80;;;;;;;;;;5096185;28;20224;-91
2021/12/30 01:50:41;;;;;;;2.33;0.70;;;;;;;;;;5095752;28;20710;-92
2021/12/30 01:53:09;;;;;;;0.70;0.70;;;;;;;;;;5095932;28;20220;-92
2021/12/30 01:55:37;;;;;;;2.77;0.90;;;;;;;;;;5096004;28;20273;-92
2021/12/30 01:58:04;;;;;;;0.97;0.97;;;;;;;;;;5109829;28;20204;-92
2021/12/30 02:00:32;;;;;;;0.90;0.90;;;;;;;;;;5116202;27;20281;-91
2021/12/30 02:03:01;;;;;;;0.60;0.60;;;;;;;;;;5110506;28;20290;-92
2021/12/30 02:05:29;;;;;;;4.97;1.10;;;;;;;;;;5104448;28;20717;-92
2021/12/30 02:07:56;;;;;;;0.70;0.70;;;;;;;;;;5116306;28;20208;-92
2021/12/30 02:10:24;;;;;;;1.73;1.00;;;;;;;;;;5116071;28;20212;-92
2021/12/30 02:12:52;;;;;;;0.70;0.70;;;;;;;;;;5112040;28;20240;-92
2021/12/30 02:15:20;;;;;;;0.73;0.73;;;;;;;;;;5095444;28;20658;-92
2021/12/30 02:17:49;;;;;;;1.90;1.00;;;;;;;;;;5095616;28;20204;-92
2021/12/30 02:20:32;;;;;;;2.40;0.90;;;;;;;;;;5095327;28;20303;-92
2021/12/30 02:23:00;;;;;;;1.73;1.00;;;;;;;;;;5107648;28;20235;-92
2021/12/30 02:25:28;;;;;;;0.87;0.87;;;;;;;;;;5115855;28;20759;-91
2021/12/30 02:27:55;;;;;;;1.63;1.10;;;;;;;;;;5115536;28;20264;-92
2021/12/30 02:30:22;;;;;;;1.40;1.30;;;;;;;;;;5115457;28;20228;-92
2021/12/30 02:32:50;;;;;;;1.20;0.90;;;;;;;;;;5115373;28;20250;-92
2021/12/30 02:35:17;;;;;;;2.30;1.00;;;;;;;;;;5115661;28;20257;-92
2021/12/30 02:37:44;;;;;;;3.33;1.23;;;;;;;;;;5115654;28;20664;-92
2021/12/30 02:40:13;;;;;;;1.13;1.10;;;;;;;;;;5114866;28;20276;-92
2021/12/30 02:42:41;;;;;;;1.50;1.13;;;;;;;;;;5114971;28;20256;-91
2021/12/30 02:45:08;;;;;;;1.00;1.00;;;;;;;;;;5115067;28;20211;-92
2021/12/30 02:47:36;;;;;;;1.00;1.00;;;;;;;;;;5115498;28;20200;-91
2021/12/30 02:50:03;;;;;;;0.77;0.77;;;;;;;;;;5115311;28;20665;-92
2021/12/30 02:52:30;;;;;;;0.70;0.70;;;;;;;;;;5114953;28;20607;-92
2021/12/30 02:54:58;;;;;;;0.80;0.80;;;;;;;;;;5115234;27;20208;-92
2021/12/30 02:57:27;;;;;;;1.30;1.20;;;;;;;;;;5115210;28;20604;-92
2021/12/30 02:59:55;;;;;;;2.43;1.20;;;;;;;;;;5114906;28;20253;-92
2021/12/30 03:02:22;;;;;;;1.70;1.10;;;;;;;;;;5114326;28;20261;-92
2021/12/30 03:04:50;;;;;;;19.33;1.83;;;;;;;;;;5094132;28;20201;-92
2021/12/30 03:07:18;;;;;;;27.57;2.33;;;;;;;;;;5094415;28;20213;-92
2021/12/30 03:09:45;;;;;;;18.67;2.80;;;;;;;;;;5094608;28;20649;-92
2021/12/30 03:12:12;;;;;;;1.60;1.50;;;;;;;;;;5094402;28;20250;-91
2021/12/30 03:14:42;;;;;;;1.40;1.30;;;;;;;;;;5094461;28;20278;-90
2021/12/30 03:17:09;;;;;;;1.00;1.00;;;;;;;;;;5094339;28;20280;-91
2021/12/30 03:19:37;;;;;;;2.50;1.00;;;;;;;;;;5095682;28;20208;-92
2021/12/30 03:22:04;;;;;;;2.60;1.13;;;;;;;;;;5114089;28;20224;-91
2021/12/30 03:24:31;;;;;;;1.30;1.17;;;;;;;;;;5114525;28;20251;-92
2021/12/30 03:26:59;;;;;;;1.10;1.00;;;;;;;;;;5109420;28;20250;-91
2021/12/30 03:29:26;;;;;;;0.80;0.80;;;;;;;;;;5093920;28;20201;-92
2021/12/30 03:31:55;;;;;;;1.10;1.00;;;;;;;;;;5093825;28;20216;-92
2021/12/30 03:34:22;;;;;;;1.50;1.40;;;;;;;;;;5093622;28;20228;-91
2021/12/30 03:36:50;;;;;;;3.07;1.50;;;;;;;;;;5093776;28;20208;-92
2021/12/30 03:39:17;;;;;;;2.97;1.40;;;;;;;;;;5094044;28;20209;-91
2021/12/30 03:41:44;;;;;;;27.63;2.73;;;;;;;;;;5093456;28;20221;-92
2021/12/30 03:44:11;;;;;;;5.40;1.77;;;;;;;;;;5101664;28;20216;-91
2021/12/30 03:46:39;;;;;;;1.90;1.70;;;;;;;;;;5112301;28;20204;-92
2021/12/30 03:49:09;;;;;;;2.10;2.00;;;;;;;;;;5099689;28;20665;-91
2021/12/30 03:51:39;;;;;;;2.43;2.10;;;;;;;;;;5093485;28;20291;-91
2021/12/30 03:54:08;;;;;;;3.60;1.87;;;;;;;;;;5107003;28;20298;-91
2021/12/30 03:56:36;;;;;;;1.63;1.53;;;;;;;;;;5113911;28;20208;-92
2021/12/30 03:59:04;;;;;;;2.27;2.07;;;;;;;;;;5113539;28;20665;-91
2021/12/30 04:01:32;;;;;;;3.17;1.90;;;;;;;;;;5113670;28;20237;-92
2021/12/30 04:03:59;;;;;;;1.60;1.50;;;;;;;;;;5113274;28;20227;-91
2021/12/30 04:06:28;;;;;;;2.70;1.50;;;;;;;;;;5113770;28;20537;-91
2021/12/30 04:08:56;;;;;;;0.80;0.80;;;;;;;;;;5113837;28;20211;-91
2021/12/30 04:11:25;;;;;;;0.83;0.83;;;;;;;;;;5105539;28;20208;-91
2021/12/30 04:13:52;;;;;;;1.00;1.00;;;;;;;;;;5105202;28;20250;-91
2021/12/30 04:16:20;;;;;;;3.47;1.10;;;;;;;;;;5095782;28;20229;-92
2021/12/30 04:18:48;;;;;;;1.00;1.00;;;;;;;;;;5096197;28;20196;-91
2021/12/30 04:21:16;;;;;;;0.60;0.60;;;;;;;;;;5113503;28;20211;-91
2021/12/30 04:23:46;;;;;;;1.63;0.87;;;;;;;;;;5104231;28;20285;-93
2021/12/30 04:26:13;;;;;;;0.77;0.77;;;;;;;;;;5101278;28;20201;-90
2021/12/30 04:28:41;;;;;;;0.60;0.60;;;;;;;;;;5103566;28;20230;-91
2021/12/30 04:31:08;;;;;;;1.23;0.50;;;;;;;;;;5113346;28;20211;-91
2021/12/30 04:33:35;;;;;;;1.17;1.07;;;;;;;;;;5112875;28;20276;-91
2021/12/30 04:36:03;;;;;;;0.77;0.70;;;;;;;;;;5113428;28;20280;-91
2021/12/30 04:38:31;;;;;;;1.37;0.80;;;;;;;;;;5113450;28;20208;-91
2021/12/30 04:41:00;;;;;;;0.70;0.70;;;;;;;;;;5104722;28;20232;-91
2021/12/30 04:43:28;;;;;;;2.30;0.60;;;;;;;;;;5103611;28;20236;-91
2021/12/30 04:45:55;;;;;;;0.70;0.60;;;;;;;;;;5105193;28;20207;-91
2021/12/30 04:48:23;;;;;;;1.13;1.03;;;;;;;;;;5105178;28;20196;-91
2021/12/30 04:50:50;;;;;;;1.53;0.70;;;;;;;;;;5101061;28;20814;-92
2021/12/30 04:53:19;;;;;;;2.10;0.90;;;;;;;;;;5092646;28;20224;-92
2021/12/30 04:55:46;;;;;;;1.07;0.80;;;;;;;;;;5092806;28;20236;-91
2021/12/30 04:58:15;;;;;;;1.87;0.60;;;;;;;;;;5092702;28;20216;-92
2021/12/30 05:00:43;;;;;;;0.60;0.60;;;;;;;;;;5103509;28;20681;-91
2021/12/30 05:03:12;;;;;;;3.33;1.00;;;;;;;;;;5112925;28;20232;-93
2021/12/30 05:05:40;;;;;;;1.10;1.10;;;;;;;;;;5117318;28;20208;-91
2021/12/30 05:08:08;;;;;;;1.40;0.93;;;;;;;;;;5102554;28;20201;-91
2021/12/30 05:10:36;;;;;;;1.00;0.83;;;;;;;;;;5115037;28;20652;-91
2021/12/30 05:13:04;;;;;;;1.73;0.70;;;;;;;;;;5117067;28;20565;-91
2021/12/30 05:15:33;;;;;;;1.27;0.90;;;;;;;;;;5116952;28;20208;-91
2021/12/30 05:18:00;;;;;;;0.73;0.73;;;;;;;;;;5117233;28;20568;-91
2021/12/30 05:20:28;;;;;;;3.57;0.70;;;;;;;;;;5115949;28;20625;-91
2021/12/30 05:22:55;;;;;;;2.70;0.90;;;;;;;;;;5116561;28;20236;-92
2021/12/30 05:25:23;;;;;;;1.23;0.80;;;;;;;;;;5116989;28;20204;-91
2021/12/30 05:27:51;;;;;;;3.80;0.80;;;;;;;;;;5116678;28;20203;-92
2021/12/30 05:30:21;;;;;;;1.60;0.80;;;;;;;;;;5116806;28;20242;-91
2021/12/30 05:32:50;;;;;;;0.67;0.67;;;;;;;;;;5116194;28;20224;-91
2021/12/30 05:35:18;;;;;;;0.80;0.70;;;;;;;;;;5116512;28;20211;-91
2021/12/30 05:37:45;;;;;;;1.00;1.00;;;;;;;;;;5116629;28;20207;-92
2021/12/30 05:40:14;;;;;;;0.70;0.70;;;;;;;;;;5116377;28;20239;-91
2021/12/30 05:42:42;;;;;;;0.70;0.70;;;;;;;;;;5116461;28;20684;-92
2021/12/30 05:45:10;;;;;;;1.30;0.83;;;;;;;;;;5116203;28;20623;-91
2021/12/30 05:47:37;;;;;;;1.40;1.30;;;;;;;;;;5116282;28;20204;-91
2021/12/30 05:50:07;;;;;;;1.70;1.20;;;;;;;;;;5114403;28;20207;-92
2021/12/30 05:52:35;;;;;;;2.20;1.70;;;;;;;;;;5090399;28;20201;-93
2021/12/30 05:55:02;;;;;;;4.47;2.33;;;;;;;;;;5095274;28;20193;-93
2021/12/30 05:57:30;;;;;;;3.63;2.10;;;;;;;;;;5095528;28;20611;-93
2021/12/30 05:59:57;;;;;;;1.87;1.50;;;;;;;;;;5087854;28;20274;-93
2021/12/30 06:02:25;;;;;;;1.77;1.10;;;;;;;;;;5099400;28;20204;-92
2021/12/30 06:04:52;;;;;;;0.80;0.80;;;;;;;;;;5086887;28;20201;-93
2021/12/30 06:07:21;;;;;;;1.77;0.70;;;;;;;;;;5093698;28;20668;-93
2021/12/30 06:09:48;;;;;;;0.90;0.90;;;;;;;;;;5104770;28;20200;-93
2021/12/30 06:12:15;;;;;;;1.07;0.90;;;;;;;;;;5108262;28;20265;-92
2021/12/30 06:14:43;;;;;;;0.80;0.80;;;;;;;;;;5094420;28;20232;-93
2021/12/30 06:17:13;;;;;;;0.83;0.80;;;;;;;;;;5093711;28;20204;-92
2021/12/30 06:19:42;;;;;;;0.60;0.50;;;;;;;;;;5110857;28;20208;-92
2021/12/30 06:22:10;;;;;;;1.17;0.60;;;;;;;;;;5115460;28;20208;-93
2021/12/30 06:24:38;;;;;;;0.63;0.60;;;;;;;;;;5093618;28;20669;-92
2021/12/30 06:27:06;;;;;;;2.17;0.67;;;;;;;;;;5093206;28;20212;-93
2021/12/30 06:29:34;;;;;;;1.53;1.10;;;;;;;;;;5100447;28;20234;-94
2021/12/30 06:32:01;;;;;;;3.47;0.93;;;;;;;;;;5095042;28;20307;-93
2021/12/30 06:34:29;;;;;;;0.70;0.70;;;;;;;;;;5085817;28;20227;-93
2021/12/30 06:36:56;;;;;;;1.27;0.80;;;;;;;;;;5092032;28;20212;-93
2021/12/30 06:39:23;;;;;;;0.83;0.83;;;;;;;;;;5090844;28;20209;-92
2021/12/30 06:41:52;;;;;;;0.83;0.83;;;;;;;;;;5101698;28;20679;-93
2021/12/30 06:44:19;;;;;;;0.80;0.80;;;;;;;;;;5103636;28;20228;-93
2021/12/30 06:46:54;;;;;;;0.70;0.70;;;;;;;;;;5086987;28;20205;-92
2021/12/30 06:49:21;;;;;;;1.83;0.73;;;;;;;;;;5104574;28;20207;-94
2021/12/30 06:51:48;;;;;;;0.60;0.60;;;;;;;;;;5106394;28;20199;-92
2021/12/30 06:54:15;;;;;;;4.10;0.80;;;;;;;;;;5092579;28;20220;-92
2021/12/30 06:56:43;;;;;;;0.67;0.67;;;;;;;;;;5094384;28;20254;-93
2021/12/30 06:59:14;;;;;;;0.63;0.63;;;;;;;;;;5115546;27;20278;-93
2021/12/30 07:01:42;;;;;;;0.70;0.70;;;;;;;;;;5100814;28;20677;-93
2021/12/30 07:06:50;;;;;;;0.50;0.50;;;;;;;;;;5089366;28;20677;-93
2021/12/30 07:09:17;;;;;;;0.57;0.57;;;;;;;;;;5092818;28;20289;-93
2021/12/30 07:11:48;;;;;;;0.70;0.70;;;;;;;;;;5091411;28;20208;-92
2021/12/30 07:14:17;;;;;;;0.67;0.67;;;;;;;;;;5112937;28;20286;-93
2021/12/30 07:16:45;;;;;;;0.63;0.60;;;;;;;;;;5115324;28;20211;-92
2021/12/30 07:19:12;;;;;;;0.50;0.50;;;;;;;;;;5108467;28;20229;-93
2021/12/30 07:21:39;;;;;;;0.63;0.63;;;;;;;;;;5084530;28;20217;-94
2021/12/30 07:24:08;;;;;;;0.70;0.70;;;;;;;;;;5099797;28;20215;-91
2021/12/30 07:26:36;;;;;;;0.73;0.73;;;;;;;;;;5108763;28;20204;-93
2021/12/30 07:29:04;;;;;;;0.80;0.80;;;;;;;;;;5091814;28;20292;-93
2021/12/30 07:31:33;;;;;;;0.70;0.70;;;;;;;;;;5100037;28;20216;-92
2021/12/30 07:34:00;;;;;;;0.87;0.60;;;;;;;;;;5107310;28;20224;-93
2021/12/30 07:36:28;;;;;;;0.63;0.63;;;;;;;;;;5108569;27;20200;-92
2021/12/30 07:38:55;;;;;;;1.43;0.87;;;;;;;;;;5102607;28;20233;-93
2021/12/30 07:41:22;;;;;;;0.97;0.80;;;;;;;;;;5115200;28;20204;-93
2021/12/30 07:43:50;;;;;;;3.03;1.07;;;;;;;;;;5108131;27;20248;-92
2021/12/30 07:46:17;;;;;;;0.80;0.77;;;;;;;;;;5084265;28;20400;-93
2021/12/30 07:48:46;;;;;;;0.90;0.90;;;;;;;;;;5102089;28;20235;-92
2021/12/30 07:51:13;;;;;;;0.90;0.77;;;;;;;;;;5109612;28;20645;-92
2021/12/30 07:53:41;;;;;;;1.43;0.70;;;;;;;;;;5101771;28;20644;-93
2021/12/30 07:56:08;;;;;;;1.50;0.77;;;;;;;;;;5103691;28;20273;-93
2021/12/30 07:58:36;;;;;;;0.60;0.60;;;;;;;;;;5110526;28;20204;-93
2021/12/30 08:01:03;;;;;;;0.70;0.70;;;;;;;;;;5099826;28;20319;-94
2021/12/30 08:03:30;;;;;;;3.07;0.80;;;;;;;;;;5097030;28;20228;-92
2021/12/30 08:05:59;;;;;;;0.60;0.60;;;;;;;;;;5091028;28;20246;-92
2021/12/30 08:08:26;;;;;;;3.97;0.80;;;;;;;;;;5073661;28;20209;-93
2021/12/30 08:10:54;;;;;;;0.70;0.70;;;;;;;;;;5085892;28;20268;-93
2021/12/30 08:13:23;;;;;;;1.17;0.70;;;;;;;;;;5111355;28;20319;-94
2021/12/30 08:15:51;;;;;;;0.80;0.80;;;;;;;;;;5114251;28;20199;-93
2021/12/30 08:18:18;;;;;;;0.87;0.70;;;;;;;;;;5104585;28;20220;-93
2021/12/30 08:20:46;;;;;;;2.13;0.80;;;;;;;;;;5091810;28;20596;-93
2021/12/30 08:23:14;;;;;;;2.07;0.80;;;;;;;;;;5105077;28;20351;-92
2021/12/30 08:25:43;;;;;;;1.00;0.80;;;;;;;;;;5113464;28;20216;-93
2021/12/30 08:28:10;;;;;;;0.80;0.80;;;;;;;;;;5104760;28;20212;-94
2021/12/30 08:30:38;;;;;;;1.03;0.90;;;;;;;;;;5092581;28;20244;-93
2021/12/30 08:33:05;;;;;;;4.20;0.83;;;;;;;;;;5098443;28;20348;-93
2021/12/30 08:35:32;;;;;;;0.63;0.63;;;;;;;;;;5113946;28;20268;-93
2021/12/30 08:38:00;;;;;;;3.03;0.70;;;;;;;;;;5089404;28;20262;-92
2021/12/30 08:40:30;;;;;;;1.50;1.13;;;;;;;;;;5106142;28;20312;-90
2021/12/30 08:42:57;;;;;;;2.43;1.10;;;;;;;;;;5091921;28;20209;-93
2021/12/30 08:45:25;;;;;;;1.00;0.90;;;;;;;;;;5071424;28;20205;-93
2021/12/30 08:47:52;;;;;;;1.83;1.00;;;;;;;;;;5080822;28;20275;-92
2021/12/30 08:50:19;;;;;;;1.17;1.17;;;;;;;;;;5089611;28;20205;-94
2021/12/30 08:52:47;;;;;;;2.60;1.40;;;;;;;;;;5085099;28;20229;-93
2021/12/30 08:55:15;;;;;;;1.30;1.10;;;;;;;;;;5073789;28;20201;-92
2021/12/30 08:57:44;;;;;;;2.97;1.30;;;;;;;;;;5080517;28;20209;-93
2021/12/30 09:00:13;;;;;;;1.13;0.93;;;;;;;;;;5096018;28;20231;-93
2021/12/30 09:02:40;;;;;;;1.30;1.10;;;;;;;;;;5094379;28;20203;-93
2021/12/30 09:05:08;;;;;;;1.60;0.80;;;;;;;;;;5085833;28;20249;-91
2021/12/30 09:07:36;;;;;;;1.03;0.70;;;;;;;;;;5087536;28;20209;-93
2021/12/30 09:10:03;;;;;;;0.93;0.93;;;;;;;;;;5099637;28;20231;-93
2021/12/30 09:12:31;;;;;;;0.77;0.77;;;;;;;;;;5090427;28;20265;-93
2021/12/30 09:14:59;;;;;;;0.67;0.67;;;;;;;;;;5096406;28;20256;-92
2021/12/30 09:17:27;;;;;;;1.13;0.90;;;;;;;;;;5091387;28;20249;-90
2021/12/30 09:19:54;;;;;;;1.47;0.80;;;;;;;;;;5113141;28;20200;-93
2021/12/30 09:22:21;;;;;;;2.40;1.10;;;;;;;;;;5105421;28;20220;-92
2021/12/30 09:24:48;;;;;;;0.90;0.90;;;;;;;;;;5093579;28;20224;-92
2021/12/30 09:27:16;;;;;;;2.57;0.70;;;;;;;;;;5092055;28;20262;-93
2021/12/30 09:29:43;;;;;;;0.40;0.40;;;;;;;;;;5092656;28;20212;-92
2021/12/30 09:32:12;;;;;;;2.03;0.60;;;;;;;;;;5089849;28;20208;-93
2021/12/30 09:34:39;;;;;;;1.23;0.80;;;;;;;;;;5082857;28;20221;-92
2021/12/30 09:37:09;;;;;;;1.03;1.00;;;;;;;;;;5095843;28;20674;-93
2021/12/30 09:39:37;;;;;;;1.23;1.13;;;;;;;;;;5092609;28;20899;-92
2021/12/30 09:42:05;;;;;;;1.30;1.20;;;;;;;;;;5077099;28;20209;-93
2021/12/30 09:44:32;;;;;;;2.70;1.20;;;;;;;;;;5077880;28;20226;-93
2021/12/30 09:47:00;;;;;;;1.40;1.13;;;;;;;;;;5099935;28;20296;-93
2021/12/30 09:49:29;;;;;;;1.63;1.33;;;;;;;;;;5092373;28;20212;-92
2021/12/30 09:51:56;;;;;;;1.53;1.43;;;;;;;;;;5086911;28;20192;-92
2021/12/30 09:54:24;;;;;;;0.97;0.90;;;;;;;;;;5085118;28;20681;-92
2021/12/30 09:56:52;;;;;;;2.13;1.50;;;;;;;;;;5107332;28;20276;-92
2021/12/30 09:59:19;;;;;;;2.57;1.50;;;;;;;;;;5116234;28;20203;-93
2021/12/30 10:01:46;;;;;;;1.63;1.00;;;;;;;;;;5089768;28;20235;-93
2021/12/30 10:04:14;;;;;;;0.70;0.70;;;;;;;;;;5099240;28;20296;-92
2021/12/30 10:06:46;;;;;;;0.70;0.70;;;;;;;;;;5097104;28;20209;-92
2021/12/30 10:09:15;;;;;;;0.90;0.90;;;;;;;;;;5094361;28;20209;-92
2021/12/30 10:11:46;;;;;;;1.03;1.00;;;;;;;;;;5091165;28;20201;-92
2021/12/30 10:14:14;;;;;;;1.10;1.10;;;;;;;;;;5110164;28;20208;-93
2021/12/30 10:16:41;;;;;;;1.17;0.90;;;;;;;;;;5116131;28;20609;-92
2021/12/30 10:19:10;;;;;;;2.00;1.03;;;;;;;;;;5086850;28;20311;-91
2021/12/30 10:21:38;;;;;;;0.50;0.50;;;;;;;;;;5094540;28;20619;-93
2021/12/30 10:24:08;;;;;;;1.20;0.90;;;;;;;;;;5095032;28;20254;-92
2021/12/30 10:26:49;;;;;;;1.70;0.60;;;;;;;;;;5088918;28;20292;-93
2021/12/30 10:29:16;;;;;;;0.70;0.60;;;;;;;;;;5101985;28;20192;-93
2021/12/30 10:31:43;;;;;;;0.50;0.50;;;;;;;;;;5115525;27;20295;-93
2021/12/30 10:34:12;;;;;;;0.33;0.30;;;;;;;;;;5110340;28;20226;-92
2021/12/30 10:36:41;;;;;;;0.50;0.50;;;;;;;;;;5082566;28;20547;-92
2021/12/30 10:39:21;;;;;;;0.30;0.30;;;;;;;;;;5113427;28;20200;-92
2021/12/30 10:41:49;;;;;;;0.97;0.40;;;;;;;;;;5095088;28;20226;-93
2021/12/30 10:44:16;;;;;;;0.37;0.37;;;;;;;;;;5088914;28;20244;-92
2021/12/30 10:46:44;;;;;;;0.67;0.50;;;;;;;;;;5096770;28;20270;-92
2021/12/30 10:49:12;;;;;;;0.40;0.40;;;;;;;;;;5099813;28;20234;-91
2021/12/30 10:51:41;;;;;;;0.40;0.40;;;;;;;;;;5094902;28;20280;-92
2021/12/30 10:54:14;;;;;;;0.50;0.50;;;;;;;;;;5096651;28;20223;-92
2021/12/30 10:56:43;;;;;;;1.80;0.50;;;;;;;;;;5094721;28;20643;-93
2021/12/30 10:59:12;;;;;;;0.30;0.30;;;;;;;;;;5073967;28;20568;-93
2021/12/30 11:01:40;;;;;;;0.50;0.50;;;;;;;;;;5078368;28;20213;-93
2021/12/30 11:04:10;;;;;;;0.53;0.53;;;;;;;;;;5093774;28;20677;-93
2021/12/30 11:06:38;;;;;;;0.40;0.40;;;;;;;;;;5094027;28;20254;-93
2021/12/30 11:09:07;;;;;;;0.20;0.20;;;;;;;;;;5090498;28;20209;-93
2021/12/30 11:11:35;;;;;;;0.30;0.30;;;;;;;;;;5079154;28;20255;-92
2021/12/30 11:14:05;;;;;;;0.57;0.30;;;;;;;;;;5107142;28;20737;-92
2021/12/30 11:16:32;;;;;;;2.33;0.60;;;;;;;;;;5114460;27;20211;-92
2021/12/30 11:19:00;;;;;;;0.63;0.30;;;;;;;;;;5108265;28;20714;-92
2021/12/30 11:21:40;;;;;;;0.37;0.37;;;;;;;;;;5084506;28;20209;-93
2021/12/30 11:24:08;;;;;;;0.30;0.30;;;;;;;;;;5092628;28;20243;-92
2021/12/30 11:26:36;;;;;;;1.10;0.40;;;;;;;;;;5114243;28;20212;-92
2021/12/30 11:29:05;;;;;;;0.80;0.37;;;;;;;;;;5094328;28;20245;-92
2021/12/30 11:31:33;;;;;;;0.30;0.30;;;;;;;;;;5100539;28;20227;-92
2021/12/30 11:34:01;;;;;;;0.37;0.37;;;;;;;;;;5114391;28;20231;-92
2021/12/30 11:36:29;;;;;;;0.50;0.30;;;;;;;;;;5114073;28;20208;-92
2021/12/30 11:38:56;;;;;;;0.43;0.43;;;;;;;;;;5086841;28;20228;-92
2021/12/30 11:41:24;;;;;;;1.10;0.90;;;;;;;;;;5085203;28;20205;-93
2021/12/30 11:43:52;;;;;;;0.40;0.40;;;;;;;;;;5114293;28;20235;-93
2021/12/30 11:46:38;;;;;;;0.40;0.40;;;;;;;;;;5091810;28;20227;-93
2021/12/30 11:49:07;;;;;;;0.30;0.30;;;;;;;;;;5095810;28;20256;-93
2021/12/30 11:51:44;;;;;;;1.07;0.80;;;;;;;;;;5113963;28;20226;-93
2021/12/30 11:54:30;;;;;;;0.47;0.40;;;;;;;;;;5092575;28;20223;-93
2021/12/30 11:57:16;;;;;;;2.20;1.33;;;;;;;;;;5098150;28;20649;-94
2021/12/30 11:59:43;;;;;;;0.70;0.70;;;;;;;;;;5076125;28;20201;-92
2021/12/30 12:02:27;;;;;;;2.47;1.67;;;;;;;;;;5071969;28;20201;-92
2021/12/30 12:04:56;;;;;;;0.70;0.70;;;;;;;;;;5097236;28;20251;-93
2021/12/30 12:07:23;;;;;;;0.40;0.40;;;;;;;;;;5108592;28;20257;-92
2021/12/30 12:09:50;;;;;;;0.80;0.40;;;;;;;;;;5072035;28;20213;-93
2021/12/30 12:12:31;;;;;;;0.30;0.30;;;;;;;;;;5078187;28;20232;-93
2021/12/30 12:15:00;;;;;;;0.27;0.27;;;;;;;;;;5097818;28;20223;-92
2021/12/30 12:17:32;;;;;;;0.30;0.30;;;;;;;;;;5113270;28;20204;-93
2021/12/30 12:20:12;;;;;;;0.30;0.30;;;;;;;;;;5090477;28;20211;-93
2021/12/30 12:22:40;;;;;;;0.30;0.30;;;;;;;;;;5099870;28;20263;-93
2021/12/30 12:25:12;;;;;;;0.30;0.20;;;;;;;;;;5093142;28;20220;-93
2021/12/30 12:27:40;;;;;;;0.30;0.30;;;;;;;;;;5086973;28;20604;-92
2021/12/30 12:30:09;;;;;;;0.30;0.30;;;;;;;;;;5088818;28;20203;-93
2021/12/30 12:32:38;;;;;;;0.30;0.20;;;;;;;;;;5112954;28;20203;-93
2021/12/30 12:35:25;;;;;;;0.10;0.10;;;;;;;;;;5095893;28;20196;-92
2021/12/30 12:37:54;;;;;;;0.30;0.30;;;;;;;;;;5084869;28;20229;-93
2021/12/30 12:40:39;;;;;;;0.30;0.30;;;;;;;;;;5101644;28;20339;-93
2021/12/30 12:43:21;;;;;;;0.50;0.50;;;;;;;;;;5118149;28;20289;-92
2021/12/30 12:45:56;;;;;;;0.40;0.27;;;;;;;;;;5088899;28;20257;-92
2021/12/30 12:48:42;;;;;;;0.30;0.30;;;;;;;;;;5105964;28;20669;-93
2021/12/30 12:51:23;;;;;;;0.70;0.20;;;;;;;;;;5088447;28;20199;-92
2021/12/30 12:53:56;;;;;;;0.30;0.30;;;;;;;;;;5097839;28;20229;-92
2021/12/30 12:56:29;;;;;;;0.30;0.30;;;;;;;;;;5089881;28;20200;-93
2021/12/30 12:58:58;;;;;;;0.30;0.30;;;;;;;;;;5079339;28;20676;-93
2021/12/30 13:01:26;;;;;;;0.63;0.60;;;;;;;;;;5085250;28;20209;-93
2021/12/30 13:03:55;;;;;;;0.30;0.30;;;;;;;;;;5076907;28;20225;-93
2021/12/30 13:06:26;;;;;;;1.30;0.40;;;;;;;;;;5075533;28;20222;-93
2021/12/30 13:08:54;;;;;;;0.30;0.30;;;;;;;;;;5084952;28;20650;-93
2021/12/30 13:11:26;;;;;;;0.40;0.33;;;;;;;;;;5090715;28;20699;-93
2021/12/30 13:13:53;;;;;;;0.43;0.37;;;;;;;;;;5091130;28;20282;-92
2021/12/30 13:16:22;;;;;;;1.60;0.20;;;;;;;;;;5077368;28;20237;-91
2021/12/30 13:19:00;;;;;;;0.37;0.37;;;;;;;;;;5104013;28;20198;-91
2021/12/30 13:21:28;;;;;;;0.30;0.30;;;;;;;;;;5107701;28;20218;-92
2021/12/30 13:23:56;;;;;;;0.40;0.40;;;;;;;;;;5079903;28;20221;-91
2021/12/30 13:26:24;;;;;;;0.20;0.20;;;;;;;;;;5085086;28;20597;-92
2021/12/30 13:28:53;;;;;;;0.20;0.20;;;;;;;;;;5096048;28;20204;-92
2021/12/30 13:31:21;;;;;;;0.20;0.20;;;;;;;;;;5096199;28;20723;-92
2021/12/30 13:33:55;;;;;;;0.30;0.30;;;;;;;;;;5092171;28;20262;-91
2021/12/30 13:36:23;;;;;;;0.73;0.30;;;;;;;;;;5099079;28;20202;-92
2021/12/30 13:39:10;;;;;;;0.50;0.30;;;;;;;;;;5092855;28;20266;-91
2021/12/30 13:41:38;;;;;;;0.30;0.30;;;;;;;;;;5085437;28;20206;-92
2021/12/30 13:44:09;;;;;;;0.30;0.30;;;;;;;;;;5097108;28;20634;-91
2021/12/30 13:46:52;;;;;;;0.30;0.30;;;;;;;;;;5111110;28;20220;-91
2021/12/30 13:49:20;;;;;;;0.30;0.30;;;;;;;;;;5082240;28;20211;-91
2021/12/30 13:51:47;;;;;;;0.70;0.40;;;;;;;;;;5081998;28;20756;-91
2021/12/30 13:54:14;;;;;;;0.30;0.30;;;;;;;;;;5115148;28;20220;-91
2021/12/30 13:56:45;;;;;;;0.60;0.60;;;;;;;;;;5087789;28;20618;-91
2021/12/30 13:59:12;;;;;;;0.40;0.40;;;;;;;;;;5089249;28;20201;-92
2021/12/30 14:01:41;;;;;;;0.40;0.40;;;;;;;;;;5094597;28;20658;-91
2021/12/30 14:04:09;;;;;;;0.40;0.40;;;;;;;;;;5115778;28;20704;-91
2021/12/30 14:06:37;;;;;;;0.40;0.40;;;;;;;;;;5110816;28;20224;-91
2021/12/30 14:09:09;;;;;;;0.40;0.40;;;;;;;;;;5094232;28;20203;-91
2021/12/30 14:11:37;;;;;;;0.40;0.40;;;;;;;;;;5084281;28;20209;-91
2021/12/30 14:14:07;;;;;;;0.30;0.30;;;;;;;;;;5109415;28;20709;-91
2021/12/30 14:16:38;;;;;;;0.30;0.30;;;;;;;;;;5098003;28;20559;-92
2021/12/30 14:19:05;;;;;;;0.20;0.20;;;;;;;;;;5073951;28;20209;-91
2021/12/30 14:21:33;;;;;;;0.40;0.40;;;;;;;;;;5076359;28;20205;-92
2021/12/30 14:24:13;;;;;;;0.40;0.40;;;;;;;;;;5091933;28;20245;-92
2021/12/30 14:26:42;;;;;;;1.53;0.30;;;;;;;;;;5095887;28;20216;-92
2021/12/30 14:29:11;;;;;;;0.40;0.40;;;;;;;;;;5084880;28;20197;-92
2021/12/30 14:31:42;;;;;;;0.33;0.33;;;;;;;;;;5098190;28;20212;-91
2021/12/30 14:34:15;;;;;;;0.30;0.30;;;;;;;;;;5089189;28;20220;-91
2021/12/30 14:36:59;;;;;;;0.50;0.50;;;;;;;;;;5091885;28;20197;-92
2021/12/30 14:39:28;;;;;;;0.30;0.30;;;;;;;;;;5099293;28;20207;-92
2021/12/30 14:42:10;;;;;;;0.40;0.40;;;;;;;;;;5091279;28;20206;-92
2021/12/30 14:44:39;;;;;;;0.40;0.40;;;;;;;;;;5086129;28;20229;-91
2021/12/30 14:47:12;;;;;;;1.03;0.40;;;;;;;;;;5093398;28;20246;-91
2021/12/30 14:49:40;;;;;;;0.70;0.60;;;;;;;;;;5104598;28;20310;-91
2021/12/30 14:52:17;;;;;;;0.40;0.40;;;;;;;;;;5099511;28;20205;-92
2021/12/30 14:54:45;;;;;;;0.30;0.30;;;;;;;;;;5093349;28;20586;-91
2021/12/30 14:57:13;;;;;;;0.60;0.60;;;;;;;;;;5108575;28;20249;-91